Time;durP1;ratioP1;P1;durP2;ratioP2;P2;SDS_P1;SDS_P2;PMS_P1;PMS_P2;Temp;Humidity;BMP_temperature;BMP_pressure;BME280_temperature;BME280_humidity;BME280_pressure;Samples;Min_cycle;Max_cycle;Signal;HPM_P1;HPM_P2
2021/05/30 00:02:18;;;;;;;1.67;1.30;;;;;;;24.86;39.16;94951.41;4930373;29;20465;-71
2021/05/30 00:04:43;;;;;;;1.70;1.33;;;;;;;24.88;38.98;94959.81;4929789;29;20102;-71
2021/05/30 00:07:09;;;;;;;2.40;1.33;;;;;;;24.86;38.83;94967.78;4929973;29;20082;-71
2021/05/30 00:09:35;;;;;;;1.60;1.27;;;;;;;24.85;39.06;94960.84;4912761;29;20032;-71
2021/05/30 00:12:00;;;;;;;1.30;1.15;;;;;;;24.82;39.06;94959.16;4929505;29;20663;-72
2021/05/30 00:14:26;;;;;;;1.77;1.27;;;;;;;24.82;39.19;94955.69;4929312;29;20460;-70
2021/05/30 00:16:51;;;;;;;1.55;1.30;;;;;;;24.81;39.85;94953.47;4929516;29;20542;-71
2021/05/30 00:19:18;;;;;;;1.60;1.10;;;;;;;24.82;39.48;94954.97;4929821;29;20491;-71
2021/05/30 00:21:43;;;;;;;2.75;1.48;;;;;;;24.81;39.26;94950.75;4928603;29;20031;-71
2021/05/30 00:24:09;;;;;;;1.85;1.13;;;;;;;24.82;39.06;94956.41;4928669;29;20837;-71
2021/05/30 00:26:35;;;;;;;1.95;1.23;;;;;;;24.80;39.22;94957.47;4929731;29;20040;-71
2021/05/30 00:29:00;;;;;;;1.60;1.20;;;;;;;24.79;39.73;94950.53;4929789;29;20046;-71
2021/05/30 00:31:25;;;;;;;1.33;1.10;;;;;;;24.79;39.86;94953.28;4930135;29;20555;-71
2021/05/30 00:33:51;;;;;;;1.48;1.10;;;;;;;24.78;39.18;94954.53;4929512;29;20023;-71
2021/05/30 00:36:16;;;;;;;1.85;1.35;;;;;;;24.77;39.64;94953.03;4929506;29;20050;-71
2021/05/30 00:38:42;;;;;;;2.10;1.40;;;;;;;24.72;39.07;94951.13;4930242;29;20852;-71
2021/05/30 00:41:07;;;;;;;1.95;1.30;;;;;;;24.74;39.50;94949.38;4929481;29;20023;-71
2021/05/30 00:43:52;;;;;;;1.50;1.20;;;;;;;24.75;39.86;94950.09;4929308;29;20019;-71
2021/05/30 00:46:18;;;;;;;1.55;1.20;;;;;;;24.72;39.84;94951.13;4929682;29;20023;-71
2021/05/30 00:48:44;;;;;;;1.67;1.20;;;;;;;24.63;39.86;94932.41;4928981;29;20047;-71
2021/05/30 00:51:10;;;;;;;1.80;1.10;;;;;;;24.70;39.36;94953.66;4921197;29;20032;-71
2021/05/30 00:53:35;;;;;;;1.35;1.20;;;;;;;24.63;40.01;94959.69;4900397;29;20035;-69
2021/05/30 00:56:04;;;;;;;1.42;1.20;;;;;;;24.62;39.39;94958.22;4902355;29;20046;-69
2021/05/30 00:58:29;;;;;;;1.20;1.10;;;;;;;24.69;39.56;94968.56;4897004;29;20036;-70
2021/05/30 01:00:54;;;;;;;1.88;1.30;;;;;;;24.68;39.86;94956.91;4909578;29;20047;-72
2021/05/30 01:03:20;;;;;;;1.70;1.20;;;;;;;24.68;39.48;94950.69;4890455;29;20060;-70
2021/05/30 01:05:46;;;;;;;1.88;1.17;;;;;;;24.65;39.99;94954.44;4892215;29;20024;-70
2021/05/30 01:08:12;;;;;;;1.75;1.17;;;;;;;24.67;39.98;94949.22;4890621;29;20196;-70
2021/05/30 01:10:42;;;;;;;1.48;1.25;;;;;;;24.66;39.84;94950.47;4892462;29;20024;-70
2021/05/30 01:13:08;;;;;;;1.50;1.13;;;;;;;24.66;39.47;94953.22;4891066;29;20033;-70
2021/05/30 01:15:33;;;;;;;1.95;1.40;;;;;;;24.63;40.33;94944.03;4906705;29;20028;-71
2021/05/30 01:17:59;;;;;;;1.60;1.17;;;;;;;24.64;39.43;94951.00;4890498;29;20052;-71
2021/05/30 01:20:25;;;;;;;2.03;1.40;;;;;;;24.61;39.77;94945.84;4906532;29;20035;-71
2021/05/30 01:22:51;;;;;;;2.60;1.30;;;;;;;24.61;40.08;94956.75;4891855;29;20032;-70
2021/05/30 01:25:18;;;;;;;1.38;1.08;;;;;;;24.60;39.71;94956.03;4890760;29;20390;-70
2021/05/30 01:27:44;;;;;;;1.52;1.35;;;;;;;24.61;40.13;94951.31;4892021;29;20024;-70
2021/05/30 01:30:10;;;;;;;1.20;1.00;;;;;;;24.61;39.66;94956.75;4906518;29;20048;-70
2021/05/30 01:32:35;;;;;;;1.10;1.00;;;;;;;24.58;40.15;94952.34;4891729;29;20025;-72
2021/05/30 01:35:01;;;;;;;1.77;1.10;;;;;;;24.57;39.95;94953.59;4891735;29;20036;-69
2021/05/30 01:37:26;;;;;;;1.73;1.05;;;;;;;24.50;39.82;94946.00;4894764;29;20056;-70
2021/05/30 01:39:51;;;;;;;1.42;1.13;;;;;;;24.58;40.39;94957.81;4893923;29;20052;-70
2021/05/30 01:42:17;;;;;;;1.65;1.10;;;;;;;24.57;40.24;94957.06;4897060;29;20039;-70
2021/05/30 01:44:42;;;;;;;1.73;0.93;;;;;;;24.56;39.86;94968.50;4914080;29;20409;-71
2021/05/30 01:47:08;;;;;;;1.80;1.10;;;;;;;24.54;40.18;94957.34;4912461;29;20024;-71
2021/05/30 01:49:36;;;;;;;2.75;1.15;;;;;;;24.53;40.35;94956.63;4913891;29;20345;-69
2021/05/30 01:52:05;;;;;;;1.08;0.90;;;;;;;24.55;39.95;94942.47;4912581;29;20047;-69
2021/05/30 01:54:30;;;;;;;1.53;1.00;;;;;;;24.56;39.66;94949.41;4913952;29;20551;-70
2021/05/30 01:56:57;;;;;;;1.25;1.10;;;;;;;24.55;40.12;94948.66;4913694;29;20052;-70
2021/05/30 01:59:24;;;;;;;1.67;0.90;;;;;;;24.55;39.69;94953.38;4913711;29;20054;-70
2021/05/30 02:01:52;;;;;;;1.25;1.00;;;;;;;24.55;40.13;94953.38;4913371;29;20609;-71
2021/05/30 02:04:18;;;;;;;1.00;0.90;;;;;;;24.37;40.07;94932.28;4912479;29;20051;-69
2021/05/30 02:06:44;;;;;;;1.48;0.95;;;;;;;24.53;40.03;94955.91;4912937;29;20060;-70
2021/05/30 02:09:10;;;;;;;1.50;1.08;;;;;;;24.52;40.12;94954.41;4912750;29;20110;-70
2021/05/30 02:11:37;;;;;;;1.65;1.02;;;;;;;24.50;40.32;94963.13;4912037;29;20579;-70
2021/05/30 02:14:03;;;;;;;2.42;1.17;;;;;;;24.39;40.17;94946.16;4913259;29;20072;-70
2021/05/30 02:16:32;;;;;;;1.50;1.15;;;;;;;24.40;40.29;94937.44;4927645;29;20028;-70
2021/05/30 02:18:57;;;;;;;1.30;1.10;;;;;;;24.48;40.12;94959.41;4943744;29;20100;-70
2021/05/30 02:21:23;;;;;;;1.65;1.00;;;;;;;24.48;40.46;94949.25;4927703;29;20510;-70
2021/05/30 02:23:49;;;;;;;1.83;1.13;;;;;;;24.48;40.49;94953.97;4913136;29;20484;-70
2021/05/30 02:26:14;;;;;;;1.58;1.08;;;;;;;24.47;40.15;94947.03;4912722;29;20076;-70
2021/05/30 02:28:40;;;;;;;1.27;1.13;;;;;;;24.40;40.23;94936.72;4913047;29;20043;-71
2021/05/30 02:31:05;;;;;;;1.48;0.90;;;;;;;24.47;40.00;94952.50;4904395;29;20028;-71
2021/05/30 02:33:31;;;;;;;1.88;0.90;;;;;;;24.46;40.49;94957.22;4913236;29;20028;-69
2021/05/30 02:35:56;;;;;;;1.10;0.98;;;;;;;24.46;40.53;94945.56;4908991;29;20489;-69
2021/05/30 02:38:22;;;;;;;1.58;1.13;;;;;;;24.45;40.59;94960.47;4894035;29;20040;-70
2021/05/30 02:40:47;;;;;;;1.23;1.02;;;;;;;24.41;40.23;94946.38;4894076;29;20032;-70
2021/05/30 02:43:13;;;;;;;1.27;1.08;;;;;;;24.43;40.77;94952.06;4894343;29;20032;-70
2021/05/30 02:45:38;;;;;;;1.48;1.00;;;;;;;24.45;40.31;94949.53;4894023;29;20032;-70
2021/05/30 02:48:04;;;;;;;1.40;0.93;;;;;;;24.44;40.77;94954.28;4893117;29;20040;-70
2021/05/30 02:50:29;;;;;;;1.27;0.98;;;;;;;24.43;40.30;94963.69;4899275;29;20072;-71
2021/05/30 02:52:55;;;;;;;1.73;1.10;;;;;;;24.43;40.64;94965.69;4912534;29;20028;-70
2021/05/30 02:55:20;;;;;;;1.65;1.20;;;;;;;24.42;40.86;94959.53;4912321;29;20036;-70
2021/05/30 02:57:46;;;;;;;1.45;0.90;;;;;;;24.42;40.55;94956.78;4911948;29;20032;-70
2021/05/30 03:00:12;;;;;;;1.38;1.15;;;;;;;24.43;40.57;94962.97;4899257;29;20029;-70
2021/05/30 03:02:37;;;;;;;1.20;0.90;;;;;;;24.39;40.37;94963.28;4894094;29;20076;-70
2021/05/30 03:05:06;;;;;;;1.08;0.90;;;;;;;24.40;40.65;94958.56;4926635;29;20484;-71
2021/05/30 03:07:32;;;;;;;1.52;1.00;;;;;;;24.41;40.53;94954.56;4912207;29;20021;-70
2021/05/30 03:09:58;;;;;;;1.33;1.00;;;;;;;24.42;40.85;94947.84;4912089;29;20424;-69
2021/05/30 03:12:23;;;;;;;1.30;1.10;;;;;;;24.37;40.68;94954.84;4929272;29;20060;-70
2021/05/30 03:14:48;;;;;;;1.33;1.00;;;;;;;24.40;40.52;94953.09;4931169;29;20126;-70
2021/05/30 03:17:14;;;;;;;1.73;1.20;;;;;;;24.42;40.34;94953.31;4914214;29;20672;-70
2021/05/30 03:19:39;;;;;;;1.23;1.05;;;;;;;24.44;40.61;94959.00;4931126;29;20039;-70
2021/05/30 03:22:05;;;;;;;1.40;1.00;;;;;;;24.40;40.54;94948.34;4930773;29;20035;-70
2021/05/30 03:24:30;;;;;;;1.65;1.02;;;;;;;24.40;40.63;94958.56;4930722;29;20032;-70
2021/05/30 03:26:56;;;;;;;1.30;0.93;;;;;;;24.41;40.42;94960.03;4931244;29;20086;-71
2021/05/30 03:29:21;;;;;;;1.65;1.10;;;;;;;24.40;40.61;94964.72;4914063;29;20027;-71
2021/05/30 03:31:47;;;;;;;1.25;0.90;;;;;;;24.40;40.45;94958.56;4913969;29;20055;-71
2021/05/30 03:34:12;;;;;;;2.47;1.02;;;;;;;24.38;40.73;94958.34;4931173;29;20438;-71
2021/05/30 03:36:38;;;;;;;1.70;1.10;;;;;;;24.38;41.02;94950.16;4930858;29;20031;-71
2021/05/30 03:39:06;;;;;;;1.38;1.00;;;;;;;24.38;40.97;94955.59;4930729;29;20483;-70
2021/05/30 03:41:35;;;;;;;1.83;1.17;;;;;;;24.38;40.20;94955.59;4914427;29;20056;-71
2021/05/30 03:44:01;;;;;;;1.77;1.20;;;;;;;24.42;40.88;94961.50;4931159;29;20106;-71
2021/05/30 03:46:27;;;;;;;2.13;1.20;;;;;;;24.38;40.96;94966.53;4930666;29;20027;-71
2021/05/30 03:48:52;;;;;;;1.38;1.00;;;;;;;24.37;40.92;94965.03;4930616;29;20031;-71
2021/05/30 03:51:18;;;;;;;1.13;0.90;;;;;;;24.37;40.64;94959.59;4913120;29;20050;-71
2021/05/30 03:53:43;;;;;;;1.13;0.98;;;;;;;24.37;40.76;94970.50;4929294;29;20028;-71
2021/05/30 03:56:09;;;;;;;1.65;1.00;;;;;;;24.37;40.94;94954.13;4923960;29;20020;-76
2021/05/30 03:58:34;;;;;;;2.40;1.10;;;;;;;24.36;38.14;94963.56;4893833;29;20033;-67
2021/05/30 04:00:59;;;;;;;1.58;0.90;;;;;;;24.26;39.57;94954.25;4914597;29;20035;-73
2021/05/30 04:03:25;;;;;;;1.48;1.00;;;;;;;24.27;40.79;94961.16;4927817;29;20043;-73
2021/05/30 04:05:50;;;;;;;1.42;0.93;;;;;;;24.29;41.38;94958.69;4923271;29;20036;-71
2021/05/30 04:08:16;;;;;;;1.45;1.00;;;;;;;24.31;40.36;94956.16;4929417;29;20035;-72
2021/05/30 04:10:44;;;;;;;1.15;1.00;;;;;;;24.32;40.35;94957.66;4924658;29;20475;-70
2021/05/30 04:13:09;;;;;;;1.27;1.10;;;;;;;24.36;39.52;94958.09;4929307;29;20038;-68
2021/05/30 04:15:35;;;;;;;1.20;0.88;;;;;;;24.40;39.86;94953.09;4923207;29;20027;-71
2021/05/30 04:18:00;;;;;;;2.97;1.10;;;;;;;24.42;39.49;94958.75;4914361;29;20024;-72
2021/05/30 04:20:26;;;;;;;1.42;1.10;;;;;;;24.43;39.93;94952.78;4927669;29;20039;-72
2021/05/30 04:22:51;;;;;;;1.27;0.85;;;;;;;24.46;39.25;94951.75;4927732;29;20023;-72
2021/05/30 04:25:18;;;;;;;1.40;1.00;;;;;;;24.65;39.40;94962.66;4902813;29;20028;-71
2021/05/30 04:27:44;;;;;;;1.02;0.80;;;;;;;24.74;38.71;94954.06;4896360;29;20023;-71
2021/05/30 04:30:10;;;;;;;1.10;0.90;;;;;;;24.82;38.48;94961.88;4902558;29;20034;-72
2021/05/30 04:32:36;;;;;;;2.10;1.10;;;;;;;24.76;38.57;94935.91;4924662;29;20036;-72
2021/05/30 04:35:02;;;;;;;1.65;1.10;;;;;;;25.02;39.19;94964.09;4890812;29;20502;-72
2021/05/30 04:37:28;;;;;;;2.15;1.05;;;;;;;25.04;37.84;94956.13;4928107;29;20030;-71
2021/05/30 04:39:53;;;;;;;2.25;1.10;;;;;;;25.21;37.95;94959.31;4941023;29;20032;-71
2021/05/30 04:42:19;;;;;;;1.65;1.00;;;;;;;25.29;38.09;94964.88;4927290;29;20031;-72
2021/05/30 04:44:45;;;;;;;1.83;1.00;;;;;;;25.45;37.24;94953.66;4926807;29;20034;-73
2021/05/30 04:47:11;;;;;;;1.30;0.90;;;;;;;25.55;37.05;94954.75;4912120;29;20571;-73
2021/05/30 04:49:36;;;;;;;1.77;0.98;;;;;;;25.69;37.33;94942.56;4906055;29;20032;-71
2021/05/30 04:52:02;;;;;;;0.95;0.73;;;;;;;25.75;37.00;94946.66;4911832;29;20028;-72
2021/05/30 04:54:27;;;;;;;2.08;1.10;;;;;;;25.81;36.45;94955.50;4921959;29;20040;-72
2021/05/30 04:56:53;;;;;;;1.65;0.93;;;;;;;25.93;36.81;94954.03;4929290;29;20043;-71
2021/05/30 04:59:18;;;;;;;1.30;0.80;;;;;;;25.98;36.83;94948.44;4927495;29;20090;-71
2021/05/30 05:01:44;;;;;;;2.58;1.15;;;;;;;26.10;36.93;94946.22;4902013;29;20043;-70
2021/05/30 05:04:09;;;;;;;1.95;1.00;;;;;;;26.23;36.78;94957.16;4926779;29;20048;-71
2021/05/30 05:06:35;;;;;;;2.00;1.15;;;;;;;26.32;36.15;94949.25;4925251;29;20040;-69
2021/05/30 05:09:00;;;;;;;1.27;0.98;;;;;;;26.44;35.97;94958.69;4928719;29;20020;-68
2021/05/30 05:11:25;;;;;;;1.13;0.70;;;;;;;26.49;35.14;94957.88;4932780;29;20039;-69
2021/05/30 05:13:51;;;;;;;1.27;1.00;;;;;;;26.53;35.47;94948.06;4932065;29;20099;-68
2021/05/30 05:16:16;;;;;;;1.27;0.88;;;;;;;26.60;36.27;94952.88;4927160;29;20028;-71
2021/05/30 05:18:42;;;;;;;1.20;0.80;;;;;;;26.69;34.97;94955.16;4930253;29;20041;-72
2021/05/30 05:21:07;;;;;;;2.45;1.20;;;;;;;26.72;34.51;94947.88;4905613;29;20020;-73
2021/05/30 05:23:33;;;;;;;3.28;1.08;;;;;;;26.75;34.88;94974.22;4931007;29;20043;-71
2021/05/30 05:26:03;;;;;;;2.22;1.10;;;;;;;26.76;34.98;94955.22;4920087;29;20032;-71
2021/05/30 05:28:28;;;;;;;1.30;0.90;;;;;;;26.66;34.85;94947.28;4930922;29;20024;-70
2021/05/30 05:30:54;;;;;;;1.55;0.85;;;;;;;26.73;34.78;94960.31;4901066;29;20524;-71
2021/05/30 05:33:19;;;;;;;1.73;1.00;;;;;;;26.82;34.61;94975.03;4915005;29;20031;-70
2021/05/30 05:35:45;;;;;;;1.42;0.90;;;;;;;26.88;34.85;94961.94;4910362;29;20508;-71
2021/05/30 05:38:10;;;;;;;1.65;1.15;;;;;;;26.84;34.47;94939.59;4914170;29;20031;-72
2021/05/30 05:40:36;;;;;;;1.63;0.90;;;;;;;26.89;34.65;94949.72;4884501;29;20032;-70
2021/05/30 05:43:04;;;;;;;2.15;1.05;;;;;;;27.03;34.28;94967.59;4914984;29;20378;-71
2021/05/30 05:45:29;;;;;;;1.27;0.85;;;;;;;27.09;34.20;94970.94;4908031;29;20027;-71
2021/05/30 05:47:55;;;;;;;1.40;0.80;;;;;;;27.11;34.21;94973.88;4928009;29;20038;-71
2021/05/30 05:50:21;;;;;;;1.55;1.02;;;;;;;27.19;34.13;94974.69;4924426;29;20028;-71
2021/05/30 05:52:47;;;;;;;1.58;0.85;;;;;;;27.21;34.28;94982.38;4914569;29;20036;-72
2021/05/30 05:55:13;;;;;;;1.30;1.20;;;;;;;27.20;34.22;94978.16;4926600;29;20032;-72
2021/05/30 05:57:39;;;;;;;1.45;1.00;;;;;;;27.25;34.02;94978.03;4931655;29;20031;-71
2021/05/30 06:00:07;;;;;;;1.50;0.98;;;;;;;27.34;33.96;94980.31;4924961;29;20047;-71
2021/05/30 06:02:33;;;;;;;2.78;1.00;;;;;;;27.14;33.89;94950.88;4931800;29;20496;-71
2021/05/30 06:04:58;;;;;;;1.15;1.00;;;;;;;27.33;33.90;94973.34;4908587;29;20050;-71
2021/05/30 06:07:24;;;;;;;1.45;0.90;;;;;;;27.35;33.80;94976.28;4931583;29;20032;-72
2021/05/30 06:09:50;;;;;;;3.15;1.23;;;;;;;27.37;33.88;94974.47;4924791;29;20031;-73
2021/05/30 06:12:16;;;;;;;1.10;1.00;;;;;;;27.42;33.86;94981.09;4931665;29;20032;-72
2021/05/30 06:14:41;;;;;;;1.80;0.82;;;;;;;27.44;33.72;94989.50;4927391;29;20488;-72
2021/05/30 06:17:07;;;;;;;2.10;0.95;;;;;;;27.49;33.75;94985.91;4930934;29;20028;-71
2021/05/30 06:19:32;;;;;;;1.58;0.90;;;;;;;27.42;33.69;94986.56;4927750;29;20028;-71
2021/05/30 06:21:58;;;;;;;2.22;1.20;;;;;;;27.51;33.73;94988.88;4923301;29;20028;-71
2021/05/30 06:24:24;;;;;;;1.23;1.00;;;;;;;27.35;33.26;94977.03;4911232;29;20087;-70
2021/05/30 06:26:52;;;;;;;1.42;1.00;;;;;;;27.32;33.71;94980.09;4911893;29;20075;-70
2021/05/30 06:29:18;;;;;;;3.03;1.02;;;;;;;27.50;33.61;94981.91;4921186;29;20028;-71
2021/05/30 06:31:43;;;;;;;2.03;0.95;;;;;;;27.53;33.42;94981.56;4928929;29;20036;-71
2021/05/30 06:34:14;;;;;;;1.95;0.90;;;;;;;27.58;33.57;94985.44;4927863;29;20432;-71
2021/05/30 06:36:40;;;;;;;2.63;0.93;;;;;;;27.66;33.71;94989.00;4927630;29;20051;-70
2021/05/30 06:39:05;;;;;;;3.28;1.10;;;;;;;27.73;33.58;94989.78;4907582;29;20039;-70
2021/05/30 06:41:31;;;;;;;2.33;1.05;;;;;;;27.73;33.58;94986.31;4930724;29;20035;-69
2021/05/30 06:43:56;;;;;;;1.67;1.10;;;;;;;27.71;33.21;94990.84;4928797;29;20031;-69
2021/05/30 06:46:22;;;;;;;1.42;0.90;;;;;;;27.69;33.13;94994.13;4927766;29;20035;-71
2021/05/30 06:48:48;;;;;;;1.88;1.10;;;;;;;27.69;33.07;94993.41;4930189;29;20047;-70
2021/05/30 06:51:15;;;;;;;2.25;1.00;;;;;;;27.73;32.95;94996.53;4927028;29;20102;-71
2021/05/30 06:53:44;;;;;;;2.90;0.93;;;;;;;27.69;32.72;94993.41;4929592;29;20410;-71
2021/05/30 06:56:09;;;;;;;2.45;0.93;;;;;;;27.64;32.81;95007.97;4914117;29;20043;-70
2021/05/30 06:58:35;;;;;;;1.73;1.10;;;;;;;27.69;32.82;94993.41;4929347;29;20637;-70
2021/05/30 07:01:00;;;;;;;2.30;1.05;;;;;;;27.73;32.57;95004.75;4923173;29;20035;-70
2021/05/30 07:03:26;;;;;;;1.92;0.90;;;;;;;27.78;32.66;95007.38;4930055;29;20087;-70
2021/05/30 07:05:51;;;;;;;1.58;1.00;;;;;;;27.82;32.70;95003.00;4929599;29;20035;-72
2021/05/30 07:08:16;;;;;;;1.23;0.80;;;;;;;27.75;32.73;95014.66;4929952;29;20038;-71
2021/05/30 07:10:42;;;;;;;1.33;0.82;;;;;;;27.71;32.86;95018.28;4906686;29;20043;-71
2021/05/30 07:13:07;;;;;;;1.63;1.10;;;;;;;27.75;32.76;95014.66;4929984;29;20039;-71
2021/05/30 07:15:33;;;;;;;1.23;0.90;;;;;;;27.75;32.75;95009.16;4926867;29;20020;-71
2021/05/30 07:17:58;;;;;;;1.55;1.00;;;;;;;27.75;32.82;95014.66;4930402;29;20035;-70
2021/05/30 07:20:25;;;;;;;2.63;1.00;;;;;;;27.71;32.24;95012.81;4920721;29;20484;-70
2021/05/30 07:22:50;;;;;;;2.17;1.00;;;;;;;27.77;32.64;95006.63;4930467;29;20476;-71
2021/05/30 07:25:16;;;;;;;2.35;1.10;;;;;;;27.76;32.27;95010.66;4926455;29;20035;-70
2021/05/30 07:27:41;;;;;;;2.35;1.00;;;;;;;27.92;32.58;95011.47;4930354;29;20105;-70
2021/05/30 07:30:07;;;;;;;3.17;0.90;;;;;;;27.81;32.30;95007.03;4930146;29;20197;-69
2021/05/30 07:32:33;;;;;;;1.65;0.90;;;;;;;27.29;30.24;95011.31;4930167;29;20040;-71
2021/05/30 07:34:59;;;;;;;2.35;1.52;;;;;;;26.90;30.23;95008.75;4930232;29;20087;-71
2021/05/30 07:37:24;;;;;;;3.15;1.13;;;;;;;26.57;30.86;95002.50;4930120;29;20058;-71
2021/05/30 07:39:50;;;;;;;2.03;1.20;;;;;;;26.47;30.91;95009.69;4930535;29;20428;-71
2021/05/30 07:42:15;;;;;;;4.28;1.50;;;;;;;26.22;30.55;95000.22;4930272;29;20035;-71
2021/05/30 07:44:41;;;;;;;2.35;1.10;;;;;;;26.24;30.80;94994.94;4907105;29;20039;-70
2021/05/30 07:47:06;;;;;;;3.30;1.25;;;;;;;26.02;31.00;94998.13;4928386;29;20043;-71
2021/05/30 07:49:32;;;;;;;1.58;1.08;;;;;;;26.01;30.80;94999.38;4930885;29;20036;-71
2021/05/30 07:51:58;;;;;;;1.58;1.00;;;;;;;25.84;30.92;94998.22;4932818;29;20116;-71
2021/05/30 07:54:24;;;;;;;2.33;1.10;;;;;;;25.81;31.05;95010.97;4930675;29;20147;-71
2021/05/30 07:56:50;;;;;;;2.38;1.20;;;;;;;25.71;30.70;95005.69;4929245;29;20126;-73
2021/05/30 07:59:16;;;;;;;2.85;1.40;;;;;;;25.69;30.93;94991.81;4915528;29;20035;-71
2021/05/30 08:01:41;;;;;;;2.33;1.20;;;;;;;25.64;31.08;94995.34;4923745;29;20050;-70
2021/05/30 08:04:07;;;;;;;1.77;1.15;;;;;;;25.57;31.53;95004.16;4935075;29;20586;-71
2021/05/30 08:06:32;;;;;;;2.15;1.35;;;;;;;25.63;31.83;94993.88;4930551;29;20090;-70
2021/05/30 08:08:58;;;;;;;3.85;1.33;;;;;;;25.58;32.30;94981.03;4916891;29;20519;-72
2021/05/30 08:11:24;;;;;;;1.80;1.30;;;;;;;25.52;32.09;94978.38;4931084;29;20031;-72
2021/05/30 08:13:50;;;;;;;3.17;1.35;;;;;;;25.52;31.73;94983.88;4931604;29;20504;-72
2021/05/30 08:16:16;;;;;;;3.13;1.50;;;;;;;25.40;32.17;94965.44;4929362;29;20026;-71
2021/05/30 08:18:41;;;;;;;3.13;1.23;;;;;;;25.60;32.39;94978.50;4914103;29;20059;-71
2021/05/30 08:21:06;;;;;;;2.28;1.30;;;;;;;25.73;31.63;94970.34;4928041;29;20015;-71
2021/05/30 08:23:32;;;;;;;2.03;0.93;;;;;;;25.71;31.29;94967.38;4930801;29;20136;-73
2021/05/30 08:25:58;;;;;;;1.42;1.20;;;;;;;25.67;31.96;94972.44;4924484;29;20058;-72
2021/05/30 08:28:23;;;;;;;3.05;1.25;;;;;;;25.55;31.27;94977.34;4912399;29;20028;-73
2021/05/30 08:30:49;;;;;;;2.95;1.40;;;;;;;25.51;31.74;94973.44;4923118;29;20043;-71
2021/05/30 08:33:14;;;;;;;2.75;1.42;;;;;;;25.55;31.89;94965.69;4932197;29;20031;-71
2021/05/30 08:35:40;;;;;;;2.58;1.23;;;;;;;25.55;31.67;94971.16;4923107;29;20036;-71
2021/05/30 08:38:05;;;;;;;2.13;1.17;;;;;;;25.50;32.13;94963.75;4928757;29;20028;-72
2021/05/30 08:40:31;;;;;;;1.83;1.25;;;;;;;25.50;32.38;94980.16;4928251;29;20027;-71
2021/05/30 08:42:56;;;;;;;2.30;1.38;;;;;;;25.53;32.33;94984.59;4898939;29;20221;-71
2021/05/30 08:45:22;;;;;;;3.20;1.15;;;;;;;25.54;31.96;94980.59;4929850;29;20031;-71
2021/05/30 08:47:47;;;;;;;2.40;1.27;;;;;;;25.51;32.35;94976.19;4934908;29;20031;-72
2021/05/30 08:50:13;;;;;;;2.35;1.35;;;;;;;25.53;31.92;94984.59;4929643;29;20031;-73
2021/05/30 08:52:39;;;;;;;1.80;1.20;;;;;;;25.58;32.03;94981.75;4940128;29;20871;-71
2021/05/30 08:55:05;;;;;;;2.90;1.17;;;;;;;25.58;32.25;94972.84;4928228;29;20035;-71
2021/05/30 08:57:31;;;;;;;1.83;1.10;;;;;;;25.58;32.38;94970.09;4932385;29;20423;-70
2021/05/30 08:59:57;;;;;;;4.03;1.38;;;;;;;25.44;32.29;94965.84;4927856;29;20023;-73
2021/05/30 09:02:22;;;;;;;2.95;1.20;;;;;;;25.53;31.77;94977.13;4915319;29;20102;-72
2021/05/30 09:04:54;;;;;;;1.75;1.20;;;;;;;25.48;32.57;94975.22;4931403;29;20063;-71
2021/05/30 09:07:44;;;;;;;2.67;1.27;;;;;;;25.55;31.63;94965.69;4931614;29;20126;-72
2021/05/30 09:10:14;;;;;;;2.67;1.20;;;;;;;25.41;32.29;94980.56;4933348;29;20144;-71
2021/05/30 09:12:41;;;;;;;;;;;;;;;25.38;32.06;94973.41;4931948;29;20065;-73
2021/05/30 09:15:14;;;;;;;1.92;1.23;;;;;;;25.27;31.88;94968.16;4921807;29;20820;-69
2021/05/30 09:17:39;;;;;;;2.38;1.20;;;;;;;25.39;31.61;94974.91;4932708;29;20031;-71
2021/05/30 09:20:06;;;;;;;3.58;1.30;;;;;;;25.67;31.99;94964.25;4908876;29;20634;-73
2021/05/30 09:22:36;;;;;;;3.03;1.20;;;;;;;25.78;31.57;94955.81;4932194;29;20027;-76
2021/05/30 09:25:02;;;;;;;;;;;;;;;25.89;31.49;94957.09;4929463;29;20026;-73
2021/05/30 09:27:27;;;;;;;1.83;1.33;;;;;;;25.93;31.66;94956.75;4932524;29;20022;-75
2021/05/30 09:30:15;;;;;;;2.58;1.40;;;;;;;25.95;31.13;94960.44;4926822;29;20365;-71
2021/05/30 09:33:01;;;;;;;2.53;1.40;;;;;;;25.90;31.38;94958.56;4932568;29;20087;-72
2021/05/30 09:35:42;;;;;;;3.58;1.70;;;;;;;25.97;31.36;94957.91;4926792;29;20039;-75
2021/05/30 09:38:19;;;;;;;4.63;1.40;;;;;;;25.82;32.33;94952.25;4931710;29;20074;-72
2021/05/30 09:40:52;;;;;;;3.35;1.27;;;;;;;25.78;31.79;94955.81;4940485;29;20927;-72
2021/05/30 09:43:22;;;;;;;3.42;1.30;;;;;;;25.85;31.54;94945.72;4932539;29;20023;-69
2021/05/30 09:46:11;;;;;;;3.28;1.10;;;;;;;25.92;31.92;94945.09;4928555;29;20719;-72
2021/05/30 09:48:41;;;;;;;2.50;1.42;;;;;;;25.90;31.90;94931.19;4928300;29;20334;-72
2021/05/30 09:51:28;;;;;;;3.70;1.20;;;;;;;25.85;32.31;94940.25;4929183;29;20423;-72
2021/05/30 09:53:55;;;;;;;2.38;1.30;;;;;;;25.92;31.54;94927.94;4927286;29;20091;-73
2021/05/30 09:56:32;;;;;;;4.32;1.40;;;;;;;26.00;32.27;94934.97;4932577;29;20488;-72
2021/05/30 09:58:58;;;;;;;1.98;1.25;;;;;;;26.03;31.89;94925.69;4928108;29;20098;-72
2021/05/30 10:01:25;;;;;;;2.38;1.20;;;;;;;26.08;31.78;94924.13;4930077;29;20051;-74
2021/05/30 10:03:52;;;;;;;3.83;1.10;;;;;;;26.11;31.55;94923.06;4930740;29;20052;-72
2021/05/30 10:06:18;;;;;;;3.05;1.20;;;;;;;26.14;31.40;94911.78;4928316;29;20356;-70
2021/05/30 10:08:43;;;;;;;1.85;1.10;;;;;;;26.20;31.68;94908.94;4929142;29;20385;-73
2021/05/30 10:11:09;;;;;;;2.00;1.33;;;;;;;26.13;30.94;94899.38;4914449;29;20428;-72
2021/05/30 10:13:34;;;;;;;2.10;1.23;;;;;;;26.16;31.32;94887.38;4931105;29;20026;-72
2021/05/30 10:16:00;;;;;;;1.92;1.40;;;;;;;26.23;30.85;94892.16;4924041;29;20519;-71
2021/05/30 10:18:55;;;;;;;3.40;1.52;;;;;;;26.15;30.92;94880.41;4932529;29;20023;-71
2021/05/30 10:21:20;;;;;;;3.60;1.35;;;;;;;26.13;31.26;94888.41;4905679;29;20032;-72
2021/05/30 10:23:51;;;;;;;1.92;1.23;;;;;;;26.22;31.17;94887.97;4905077;29;20044;-68
2021/05/30 10:26:21;;;;;;;1.40;1.10;;;;;;;26.32;31.50;94889.00;4902752;29;20028;-71
2021/05/30 10:28:54;;;;;;;2.13;1.25;;;;;;;26.28;31.21;94888.63;4930900;29;20036;-71
2021/05/30 10:31:30;;;;;;;1.60;1.05;;;;;;;26.35;31.02;94883.22;4920851;29;20064;-70
2021/05/30 10:34:14;;;;;;;2.63;1.30;;;;;;;26.42;31.02;94881.81;4914855;29;20111;-70
2021/05/30 10:36:43;;;;;;;2.90;1.00;;;;;;;26.42;31.37;94877.06;4929755;29;20163;-70
2021/05/30 10:39:31;;;;;;;3.83;1.48;;;;;;;26.50;31.42;94877.16;4931431;29;20114;-70
2021/05/30 10:42:31;;;;;;;4.70;1.30;;;;;;;26.49;31.55;94870.22;4932630;29;20067;-70
2021/05/30 10:45:04;;;;;;;3.08;1.33;;;;;;;26.61;31.32;94876.91;4833410;29;20033;-71
2021/05/30 10:47:42;;;;;;;1.60;1.15;;;;;;;26.64;31.15;94875.84;4914195;29;20040;-70
2021/05/30 10:50:10;;;;;;;2.20;1.10;;;;;;;26.65;31.59;94871.81;4929116;29;20028;-71
2021/05/30 10:52:36;;;;;;;2.28;1.30;;;;;;;26.76;31.86;94878.50;4926236;29;20035;-70
2021/05/30 10:55:26;;;;;;;2.13;1.30;;;;;;;26.79;31.34;94882.19;4925249;29;20031;-70
2021/05/30 10:57:51;;;;;;;2.33;1.50;;;;;;;26.76;31.38;94877.78;4930401;29;20043;-71
2021/05/30 11:00:17;;;;;;;2.70;1.45;;;;;;;26.77;31.22;94880.00;4922668;29;20047;-63
2021/05/30 11:03:02;;;;;;;2.72;1.60;;;;;;;27.08;31.28;94876.25;4926466;29;20478;-63
2021/05/30 11:05:39;;;;;;;2.50;1.42;;;;;;;27.16;31.46;94882.53;4925907;29;20055;-63
2021/05/30 11:08:05;;;;;;;3.30;1.13;;;;;;;27.32;31.28;94873.13;4930370;29;20856;-63
2021/05/30 11:10:30;;;;;;;2.85;1.33;;;;;;;27.45;31.38;94890.22;4923835;29;20042;-64
2021/05/30 11:12:56;;;;;;;1.95;1.20;;;;;;;27.47;31.31;94879.47;4930221;29;20424;-63
2021/05/30 11:15:23;;;;;;;2.25;1.45;;;;;;;27.48;31.20;94885.69;4924412;29;20040;-63
2021/05/30 11:17:50;;;;;;;2.35;1.50;;;;;;;27.50;31.22;94877.66;4930593;29;20034;-63
2021/05/30 11:20:17;;;;;;;3.60;1.50;;;;;;;27.39;31.43;94877.94;4924706;29;20039;-64
2021/05/30 11:22:45;;;;;;;3.45;1.60;;;;;;;27.25;31.68;94891.00;4917880;29;20070;-64
2021/05/30 11:25:11;;;;;;;4.75;1.60;;;;;;;27.35;31.50;94885.75;4919775;29;20570;-64
2021/05/30 11:27:49;;;;;;;4.18;1.30;;;;;;;27.37;31.55;94875.00;4926683;29;20035;-64
2021/05/30 11:30:53;;;;;;;3.13;1.40;;;;;;;27.30;31.40;94875.69;4923388;29;20579;-64
2021/05/30 11:33:21;;;;;;;5.20;1.60;;;;;;;27.19;31.49;94875.22;4907785;29;20127;-64
2021/05/30 11:36:00;;;;;;;2.60;1.45;;;;;;;27.14;31.52;94878.84;4918248;29;20044;-64